メインページ
METAR-TAF:

METAR-TAF

空港 :

ヌメア国際空港, ニューカレドニア

緯度: 22-01S, 経度: 166-13E, 海抜: 16m

現時点の気象観測

当レポートは32分前の14:00(UTC)に作成
変向風 2kt
気温 19°C
湿度 83%
気圧 1018 hPa
視程10km以上
高度3400ftの雲はほとんどない
高度15000ftの千切れ雲あり

METAR: NWWW 251400Z AUTO VRB02KT 9999 FEW034 BKN150 19/16 Q1018 NOSIG

時間: 01:32 (14:32 UTC)

予報

当レポートは3時間32分前の11:00(UTC)に作成
予報は25日の 12時(UTC)から 26日の 12時(UTC)まで有効
の風 5kt
視程10km以上
高度4000ftの雲はほとんどない
25日の 21時(UTC)から 25日の 23時(UTC)まで徐々に
東/南東の風 12kt
26日の 05時(UTC)から 26日の 12時(UTC)まで一時的に
視程: 4500m
高度1400ftの千切れ雲あり
高度1800ftの雲は散在している, 塔状積雲.
にわか雨

TAF: NWWW 251100Z 2512/2612 17005KT 9999 FEW040 BECMG 2521/2523 12012KT TEMPO 2605/2612 4500 SHRA BKN014 SCT018TCU

4,000以上の空港の気象観測と天気予報(METAR報とTAF報)

利用可能な観測所は地図上に黄色い丸と赤い丸で示す。

丸の上にカーソルを重ねると観測所名を参照できる。

次にクリックすると気象観測と天気予報を参照できる。

マップの切り替え:黒色「×」印の緑ボタンをクリックして拡大、「-」印の緑ボタンをクリックして縮小、緑色の三角印をクリックして隣りの地図に切り替え


METAR-TAF: